Time;durP1;ratioP1;P1;durP2;ratioP2;P2;SDS_P1;SDS_P2;PMS_P1;PMS_P2;Temp;Humidity;BMP_temperature;BMP_pressure;BME280_temperature;BME280_humidity;BME280_pressure;Samples;Min_cycle;Max_cycle;Signal;HPM_P1;HPM_P2
2023/08/23 00:01:02;;;;;;;15.27;5.32;;;;;;;15.61;100.00;101161.88;4983372;28;20047;-55
2023/08/23 00:03:46;;;;;;;12.18;4.43;;;;;;;15.51;100.00;101153.19;4983498;28;20038;-55
2023/08/23 00:06:13;;;;;;;14.82;5.50;;;;;;;15.38;100.00;101150.25;4982495;28;20077;-54
2023/08/23 00:08:39;;;;;;;11.43;5.40;;;;;;;15.34;100.00;101143.53;4983256;28;20057;-55
2023/08/23 00:11:06;;;;;;;13.73;5.78;;;;;;;15.32;100.00;101150.97;4982511;28;20070;-56
2023/08/23 00:13:32;;;;;;;20.98;6.00;;;;;;;15.34;100.00;101143.53;4981461;28;20068;-56
2023/08/23 00:15:59;;;;;;;15.38;5.70;;;;;;;15.40;100.00;101153.63;4982515;28;20050;-55
2023/08/23 00:18:26;;;;;;;16.13;5.43;;;;;;;15.39;100.00;101147.34;4982419;28;20561;-55
2023/08/23 00:20:52;;;;;;;17.33;5.13;;;;;;;15.39;100.00;101151.91;4982502;28;20062;-56
2023/08/23 00:23:20;;;;;;;11.38;4.68;;;;;;;15.48;100.00;101148.97;4982745;28;20047;-56
2023/08/23 00:25:47;;;;;;;14.70;5.60;;;;;;;15.36;100.00;101141.47;4983765;28;20070;-56
2023/08/23 00:28:15;;;;;;;12.48;5.40;;;;;;;15.30;100.00;101143.03;4982565;28;20046;-56
2023/08/23 00:30:53;;;;;;;9.57;5.13;;;;;;;15.29;100.00;101143.22;4982250;28;20049;-56
2023/08/23 00:33:21;;;;;;;13.68;5.60;;;;;;;15.29;100.00;101148.63;4979206;28;20046;-56
2023/08/23 00:35:48;;;;;;;13.10;5.32;;;;;;;15.22;100.00;101141.25;4980475;28;20047;-56
2023/08/23 00:38:15;;;;;;;13.63;5.82;;;;;;;15.18;100.00;101134.50;4976967;28;20050;-55
2023/08/23 00:40:43;;;;;;;13.85;5.80;;;;;;;15.12;100.00;101129.84;4961727;28;20053;-56
2023/08/23 00:43:09;;;;;;;17.38;5.47;;;;;;;15.06;100.00;101129.72;4961710;28;20051;-56
2023/08/23 00:45:36;;;;;;;14.07;5.22;;;;;;;15.04;100.00;101129.03;4962365;28;20055;-56
2023/08/23 00:48:05;;;;;;;16.65;5.65;;;;;;;14.92;100.00;101123.22;4962067;28;20067;-57
2023/08/23 00:50:32;;;;;;;12.25;5.15;;;;;;;14.80;100.00;101103.03;4962274;28;20058;-57
2023/08/23 00:52:59;;;;;;;16.70;5.50;;;;;;;14.76;100.00;101094.44;4962200;28;20043;-56
2023/08/23 00:55:26;;;;;;;19.98;5.15;;;;;;;14.85;100.00;101103.34;4969003;28;20467;-56
2023/08/23 00:57:53;;;;;;;13.43;5.25;;;;;;;14.76;100.00;101105.25;4980500;28;20050;-57
2023/08/23 01:00:21;;;;;;;10.23;5.28;;;;;;;14.78;100.00;101103.22;4981601;28;20054;-55
2023/08/23 01:02:47;;;;;;;18.33;5.70;;;;;;;14.56;100.00;101085.91;4980698;28;20035;-56
2023/08/23 01:16:31;;;;;;;15.35;5.97;;;;;;;14.03;100.00;101030.88;4977883;28;20098;-56
2023/08/23 01:19:01;;;;;;;12.57;5.68;;;;;;;14.03;100.00;101028.19;4978982;28;20066;-55
2023/08/23 01:21:33;;;;;;;10.82;5.53;;;;;;;13.96;100.00;101024.50;4978514;28;20070;-56
2023/08/23 01:24:07;;;;;;;11.00;6.00;;;;;;;13.97;100.00;101015.38;4978785;28;20070;-55
2023/08/23 01:26:40;;;;;;;16.75;6.45;;;;;;;13.95;100.00;101017.44;4982331;28;20068;-56
2023/08/23 01:29:07;;;;;;;12.32;6.30;;;;;;;13.65;100.00;100982.13;4982450;28;20047;-56
2023/08/23 01:31:39;;;;;;;11.00;5.60;;;;;;;13.51;100.00;100969.38;4983906;28;20236;-57
2023/08/23 01:34:20;;;;;;;12.77;5.93;;;;;;;13.48;100.00;100957.06;4982489;28;20046;-55
2023/08/23 01:36:50;;;;;;;14.48;6.45;;;;;;;13.38;100.00;100955.59;4982909;28;20086;-56
2023/08/23 01:39:17;;;;;;;8.52;5.38;;;;;;;13.37;100.00;100946.66;4982161;28;20076;-56
2023/08/23 01:41:44;;;;;;;15.90;6.20;;;;;;;13.56;100.00;100972.38;4982593;28;20098;-55
2023/08/23 01:44:10;;;;;;;17.50;7.55;;;;;;;13.55;100.00;100976.09;4982090;28;20115;-56
2023/08/23 01:46:37;;;;;;;18.02;6.38;;;;;;;13.57;100.00;100984.84;4981364;28;20069;-56
2023/08/23 01:49:04;;;;;;;15.32;5.55;;;;;;;13.47;100.00;100973.44;4981529;28;20134;-56
2023/08/23 01:51:30;;;;;;;11.18;5.63;;;;;;;13.27;100.00;100949.56;4981316;28;20126;-55
2023/08/23 01:53:57;;;;;;;15.95;6.75;;;;;;;12.83;100.00;100887.19;4982116;28;20470;-56
2023/08/23 01:56:24;;;;;;;27.70;6.13;;;;;;;12.44;100.00;100817.91;4981283;28;20046;-55
2023/08/23 01:58:50;;;;;;;10.35;6.13;;;;;;;12.41;100.00;100819.09;4981108;28;20051;-56
2023/08/23 02:01:17;;;;;;;9.18;5.75;;;;;;;12.48;100.00;100813.88;4981228;28;20046;-56
2023/08/23 02:03:44;;;;;;;12.05;6.00;;;;;;;12.63;100.00;100841.78;4981131;28;20053;-61
2023/08/23 02:06:12;;;;;;;14.52;5.65;;;;;;;12.46;100.00;100825.84;4982908;28;20046;-56
2023/08/23 02:08:38;;;;;;;13.35;5.82;;;;;;;12.06;100.00;100760.28;4981124;28;20046;-55
2023/08/23 02:11:05;;;;;;;16.33;6.63;;;;;;;11.06;100.00;100611.78;4981737;28;20070;-55
2023/08/23 02:13:31;;;;;;;19.25;7.07;;;;;;;10.70;100.00;100559.22;4980424;28;20047;-55
2023/08/23 02:15:58;;;;;;;11.35;6.45;;;;;;;10.86;100.00;100585.25;4981199;28;20499;-54
2023/08/23 02:18:25;;;;;;;12.02;6.07;;;;;;;11.58;100.00;100700.13;4981743;28;20559;-56
2023/08/23 02:20:58;;;;;;;17.33;6.70;;;;;;;11.91;100.00;100742.16;4981963;28;20097;-55
2023/08/23 02:23:25;;;;;;;17.45;6.38;;;;;;;12.30;100.00;100806.00;4981472;28;20054;-56
2023/08/23 02:25:52;;;;;;;13.25;6.57;;;;;;;12.49;100.00;100831.72;4981727;28;20051;-56
2023/08/23 02:28:18;;;;;;;15.60;6.78;;;;;;;12.67;100.00;100858.44;4980921;28;20054;-55
2023/08/23 02:30:45;;;;;;;9.05;6.38;;;;;;;12.60;100.00;100847.50;4980294;28;20069;-56
2023/08/23 02:33:12;;;;;;;13.93;6.28;;;;;;;12.55;100.00;100843.63;4980495;28;20050;-56
2023/08/23 02:35:46;;;;;;;13.07;6.72;;;;;;;12.28;100.00;100801.78;4980619;28;20101;-55
2023/08/23 02:38:13;;;;;;;14.15;7.13;;;;;;;12.00;100.00;100761.78;4979460;28;20156;-55
2023/08/23 02:40:43;;;;;;;19.60;6.57;;;;;;;11.49;100.00;100674.28;4980700;28;20065;-55
2023/08/23 02:43:10;;;;;;;17.08;6.68;;;;;;;11.58;100.00;100689.38;4981314;28;20110;-57
2023/08/23 02:45:40;;;;;;;15.27;6.65;;;;;;;10.84;100.00;100581.88;4980114;28;20046;-56
2023/08/23 02:48:09;;;;;;;13.07;6.35;;;;;;;10.40;100.00;100504.31;4980673;28;20047;-55
2023/08/23 02:50:36;;;;;;;14.52;6.68;;;;;;;9.79;100.00;100412.53;4980329;28;20054;-56
2023/08/23 02:53:03;;;;;;;15.35;6.45;;;;;;;9.94;100.00;100439.53;4980835;28;20053;-55
2023/08/23 02:55:33;;;;;;;17.50;7.43;;;;;;;10.30;100.00;100492.88;4979661;28;20495;-55
2023/08/23 02:57:59;;;;;;;13.90;7.22;;;;;;;9.70;100.00;100407.31;4979939;28;20337;-55
2023/08/23 03:00:26;;;;;;;13.85;6.70;;;;;;;9.77;100.00;100411.00;4980209;28;20051;-57
2023/08/23 03:02:52;;;;;;;11.30;6.93;;;;;;;9.82;100.00;100419.41;4979770;28;20098;-56
2023/08/23 03:05:19;;;;;;;17.02;6.75;;;;;;;10.43;100.00;100517.38;4980718;28;20049;-57
2023/08/23 03:07:46;;;;;;;16.02;6.88;;;;;;;10.60;100.00;100555.03;4980066;28;20125;-56
2023/08/23 03:10:13;;;;;;;10.95;6.28;;;;;;;10.83;100.00;100601.69;4979458;28;20673;-56
2023/08/23 03:12:39;;;;;;;19.02;7.07;;;;;;;10.69;100.00;100578.19;4979881;28;20047;-56
2023/08/23 03:15:07;;;;;;;13.07;6.30;;;;;;;10.71;100.00;100584.22;4979710;28;20106;-56
2023/08/23 03:17:33;;;;;;;17.98;7.40;;;;;;;10.07;100.00;100490.00;4979549;28;20078;-55
2023/08/23 03:20:00;;;;;;;11.63;6.35;;;;;;;8.99;100.00;100318.31;4978727;28;20426;-55
2023/08/23 03:22:26;;;;;;;16.17;6.70;;;;;;;8.81;100.00;100294.28;4979248;28;20469;-56
2023/08/23 03:24:53;;;;;;;12.32;7.45;;;;;;;8.46;100.00;100243.63;4979810;28;20047;-57
2023/08/23 03:27:20;;;;;;;13.05;7.05;;;;;;;8.74;100.00;100298.59;4978736;28;20539;-56
2023/08/23 03:29:47;;;;;;;15.45;6.82;;;;;;;8.70;100.00;100285.69;4963062;28;20051;-56
2023/08/23 03:32:15;;;;;;;15.13;6.28;;;;;;;8.96;100.00;100326.66;4980087;28;20097;-56
2023/08/23 03:34:41;;;;;;;18.17;7.15;;;;;;;8.94;100.00;100333.97;4978818;28;20051;-56
2023/08/23 03:37:08;;;;;;;16.45;7.53;;;;;;;8.84;100.00;100325.22;4978240;28;20101;-55
2023/08/23 03:39:34;;;;;;;19.52;6.93;;;;;;;8.83;100.00;100332.41;4979283;28;20059;-55
2023/08/23 03:42:01;;;;;;;15.55;7.03;;;;;;;8.71;100.00;100312.31;4978828;28;20046;-55
2023/08/23 03:44:27;;;;;;;14.52;7.03;;;;;;;8.58;100.00;100296.69;4978918;28;20105;-56
2023/08/23 03:46:56;;;;;;;14.00;7.05;;;;;;;8.59;100.00;100303.69;4979677;28;20058;-55
2023/08/23 03:49:23;;;;;;;13.15;7.25;;;;;;;8.65;100.00;100309.41;4978318;28;20061;-55
2023/08/23 03:51:52;;;;;;;14.75;6.80;;;;;;;8.79;100.00;100331.06;4978722;28;20107;-56
2023/08/23 03:54:19;;;;;;;14.50;8.15;;;;;;;8.70;100.00;100318.63;4978954;28;20471;-57
2023/08/23 03:56:46;;;;;;;17.40;7.30;;;;;;;8.47;100.00;100291.59;4978789;28;20043;-57
2023/08/23 03:59:12;;;;;;;15.35;7.45;;;;;;;7.64;100.00;100162.91;4979261;28;20043;-56
2023/08/23 04:01:39;;;;;;;15.65;8.13;;;;;;;7.63;100.00;100166.53;4980379;28;20066;-56
2023/08/23 04:04:06;;;;;;;12.00;7.30;;;;;;;6.38;100.00;99967.41;4979194;28;20058;-56
2023/08/23 04:06:33;;;;;;;13.27;7.95;;;;;;;6.07;100.00;99913.63;4978459;28;20566;-55
2023/08/23 04:08:59;;;;;;;13.45;7.65;;;;;;;5.93;100.00;99892.84;4977414;28;20050;-55
2023/08/23 04:11:26;;;;;;;15.30;8.07;;;;;;;5.81;100.00;99876.25;4977982;28;20466;-56
2023/08/23 04:13:52;;;;;;;12.68;7.22;;;;;;;14.43;100.00;101120.78;4972581;28;20042;-62
2023/08/23 04:16:19;;;;;;;16.08;7.18;;;;;;;10.78;100.00;100646.94;4970664;28;20415;-61
2023/08/23 04:18:45;;;;;;;17.73;7.97;;;;;;;5.89;100.00;99878.16;4970528;28;20051;-62
2023/08/23 04:21:12;;;;;;;16.13;7.65;;;;;;;-1.53;100.00;98689.84;4970952;28;20113;-63
2023/08/23 04:23:38;;;;;;;12.10;7.45;;;;;;;-10.57;100.00;97229.56;4953553;28;20098;-63
2023/08/23 04:26:05;;;;;;;13.00;7.05;;;;;;;-22.94;100.00;95242.34;4969985;28;20110;-63
2023/08/23 04:28:32;;;;;;;13.30;8.18;;;;;;;-23.03;100.00;95230.19;4953403;28;20470;-63
2023/08/23 04:31:02;;;;;;;10.73;7.82;;;;;;;-17.21;100.00;96154.69;4970244;28;20129;-62
2023/08/23 04:33:28;;;;;;;20.50;8.13;;;;;;;-11.23;100.00;97123.09;4970648;28;20148;-62
2023/08/23 04:35:55;;;;;;;16.88;7.60;;;;;;;-10.50;100.00;97233.34;4970805;28;20039;-63
2023/08/23 04:38:21;;;;;;;14.90;7.45;;;;;;;-10.30;100.00;97270.75;4970681;28;20050;-62
2023/08/23 04:40:48;;;;;;;15.23;7.30;;;;;;;-9.79;100.00;97354.13;4970142;28;20085;-63
2023/08/23 04:43:14;;;;;;;25.27;7.70;;;;;;;-12.28;100.00;96956.59;4952924;28;20042;-63
2023/08/23 04:45:41;;;;;;;18.38;7.57;;;;;;;-10.07;100.00;97319.09;4971136;28;20050;-63
2023/08/23 04:48:08;;;;;;;13.02;7.18;;;;;;;-9.30;100.00;97443.00;4969992;28;20053;-63
2023/08/23 04:50:35;;;;;;;12.15;7.43;;;;;;;-8.36;100.00;97596.03;4970184;28;20043;-63
2023/08/23 04:53:03;;;;;;;18.48;7.55;;;;;;;-7.27;100.00;97763.69;4970325;28;20050;-63
2023/08/23 04:55:30;;;;;;;13.68;7.20;;;;;;;-4.13;100.00;98265.84;4970029;28;20050;-63
2023/08/23 04:57:56;;;;;;;12.13;7.22;;;;;;;-4.39;100.00;98215.66;4970463;28;20130;-64
2023/08/23 05:00:22;;;;;;;11.35;6.72;;;;;;;-1.58;100.00;98675.41;4972300;28;20075;-63
2023/08/23 05:02:49;;;;;;;12.45;7.53;;;;;;;-1.56;100.00;98673.50;4974060;28;20050;-63
2023/08/23 05:05:16;;;;;;;11.82;7.20;;;;;;;-1.71;100.00;98650.19;4974486;28;20418;-63
2023/08/23 05:07:42;;;;;;;16.10;7.07;;;;;;;-1.71;100.00;98650.19;4974846;28;20105;-62
2023/08/23 05:10:09;;;;;;;12.90;7.40;;;;;;;-0.60;100.00;98820.31;4974628;28;20051;-62
2023/08/23 05:12:36;;;;;;;14.65;6.97;;;;;;;-0.09;100.00;98895.66;4973508;28;20109;-62
2023/08/23 05:15:03;;;;;;;22.33;7.75;;;;;;;0.35;100.00;98972.63;4974161;28;20050;-61
2023/08/23 05:17:30;;;;;;;16.27;6.75;;;;;;;-0.60;100.00;98819.47;4974018;28;20473;-62
2023/08/23 05:19:58;;;;;;;15.48;6.50;;;;;;;0.15;100.00;98928.72;4973446;28;20046;-61
2023/08/23 05:22:24;;;;;;;15.35;6.85;;;;;;;2.22;100.00;99248.81;4974074;28;20323;-62
2023/08/23 05:24:51;;;;;;;11.13;6.95;;;;;;;3.05;100.00;99378.75;4973918;28;20054;-62
2023/08/23 05:27:17;;;;;;;15.90;6.03;;;;;;;4.05;100.00;99553.91;4973528;28;20505;-62
2023/08/23 05:29:44;;;;;;;14.65;7.00;;;;;;;4.04;100.00;99530.19;4973702;28;20470;-61
2023/08/23 05:32:11;;;;;;;14.02;6.28;;;;;;;5.19;100.00;99710.34;4974264;28;20097;-62
2023/08/23 05:34:39;;;;;;;16.73;6.53;;;;;;;6.99;100.00;99989.78;4973739;28;20051;-62
2023/08/23 05:37:06;;;;;;;16.17;6.22;;;;;;;8.89;100.00;100293.50;4956668;28;20042;-62
2023/08/23 05:39:32;;;;;;;11.05;6.00;;;;;;;9.31;100.00;100357.78;4973350;28;20117;-62
2023/08/23 05:41:59;;;;;;;19.63;6.68;;;;;;;9.89;100.00;100457.94;4972972;28;20086;-62
2023/08/23 05:44:25;;;;;;;14.90;6.35;;;;;;;10.60;100.00;100560.38;4973580;28;20058;-62
2023/08/23 05:46:52;;;;;;;18.80;6.13;;;;;;;11.40;100.00;100673.41;4973051;28;20051;-62
2023/08/23 05:49:19;;;;;;;9.95;5.47;;;;;;;11.67;100.00;100702.66;4973396;28;20105;-64
2023/08/23 05:51:46;;;;;;;15.32;5.85;;;;;;;12.96;100.00;100902.81;4973020;28;20050;-63
2023/08/23 05:54:12;;;;;;;14.15;5.68;;;;;;;13.23;100.00;100934.75;4973849;28;20047;-63
2023/08/23 05:56:39;;;;;;;13.38;5.45;;;;;;;13.54;100.00;100966.31;4973434;28;20046;-63
2023/08/23 05:59:05;;;;;;;9.40;5.20;;;;;;;13.85;100.00;101011.41;4972729;28;20065;-63
2023/08/23 06:01:32;;;;;;;7.35;5.00;;;;;;;14.37;100.00;101056.69;4956369;28;20058;-62
2023/08/23 06:03:58;;;;;;;13.65;4.85;;;;;;;14.72;100.00;101093.97;4973296;28;20101;-62
2023/08/23 06:06:25;;;;;;;7.80;4.95;;;;;;;14.90;100.00;101112.59;4972834;28;20495;-62
2023/08/23 06:08:51;;;;;;;14.55;5.50;;;;;;;14.87;100.00;101114.81;4973109;28;20118;-61
2023/08/23 06:11:18;;;;;;;13.27;4.80;;;;;;;15.01;100.00;101122.13;4972231;28;20372;-63
2023/08/23 06:13:46;;;;;;;13.85;4.68;;;;;;;15.36;100.00;101131.50;4973106;28;20043;-62
2023/08/23 06:16:12;;;;;;;7.93;4.40;;;;;;;15.75;100.00;101146.75;4973646;28;20078;-62
2023/08/23 06:18:39;;;;;;;9.00;4.60;;;;;;;15.97;100.00;101154.97;4973093;28;20565;-62
2023/08/23 06:21:05;;;;;;;7.00;3.97;;;;;;;16.08;100.00;101166.16;4973400;28;20097;-63
2023/08/23 06:23:32;;;;;;;11.40;4.07;;;;;;;16.27;100.00;101172.91;4973380;28;20468;-63
2023/08/23 06:25:59;;;;;;;17.95;6.35;;;;;;;16.47;100.00;101175.91;4973226;28;20046;-63
2023/08/23 06:28:26;;;;;;;8.02;4.30;;;;;;;16.63;100.00;101178.41;4973249;28;20499;-63
2023/08/23 06:30:52;;;;;;;6.18;4.47;;;;;;;16.76;100.00;101191.28;4972979;28;20484;-63
2023/08/23 06:33:19;;;;;;;9.23;3.97;;;;;;;16.77;100.00;101179.41;4972942;28;20121;-63
2023/08/23 06:35:46;;;;;;;8.75;4.00;;;;;;;16.97;100.00;101190.50;4972783;28;20161;-62
2023/08/23 06:38:15;;;;;;;11.38;3.53;;;;;;;16.98;100.00;101188.63;4973578;28;20070;-63
2023/08/23 06:40:42;;;;;;;8.05;3.33;;;;;;;17.17;100.00;101192.59;4972977;28;20046;-64
2023/08/23 06:43:17;;;;;;;10.90;3.75;;;;;;;17.20;100.00;101200.31;4972771;28;20038;-63
2023/08/23 06:45:43;;;;;;;6.72;3.63;;;;;;;17.34;100.00;101191.34;4972412;28;20070;-63
2023/08/23 06:48:10;;;;;;;9.38;3.90;;;;;;;17.43;100.00;101200.16;4972845;28;20567;-63
2023/08/23 06:50:37;;;;;;;6.60;3.70;;;;;;;17.47;100.00;101206.88;4972686;28;20046;-63
2023/08/23 06:53:05;;;;;;;7.32;3.13;;;;;;;17.68;100.00;101208.75;4972044;28;20050;-62
2023/08/23 06:55:31;;;;;;;12.93;4.38;;;;;;;17.78;100.00;101204.66;4971710;28;20507;-63
2023/08/23 06:57:59;;;;;;;8.85;3.22;;;;;;;18.00;100.00;101208.19;4972165;28;20089;-63
2023/08/23 07:00:26;;;;;;;6.90;3.30;;;;;;;18.11;100.00;101209.50;4971674;28;20062;-63
2023/08/23 07:02:53;;;;;;;10.98;3.45;;;;;;;18.38;100.00;101207.84;4971791;28;20051;-63
2023/08/23 07:05:19;;;;;;;5.20;3.30;;;;;;;18.65;100.00;101210.69;4971848;28;20093;-64
2023/08/23 07:07:47;;;;;;;9.07;2.63;;;;;;;18.90;100.00;101217.28;4972492;28;20495;-64
2023/08/23 07:10:14;;;;;;;11.23;3.25;;;;;;;19.09;100.00;101215.69;4972636;28;20129;-64
2023/08/23 07:12:54;;;;;;;7.50;2.90;;;;;;;19.18;100.00;101222.63;4971855;28;20129;-64
2023/08/23 07:15:20;;;;;;;9.35;2.53;;;;;;;19.41;100.00;101222.25;4971693;28;20075;-64
2023/08/23 07:17:48;;;;;;;6.10;3.22;;;;;;;19.63;100.00;101219.38;4971748;28;20055;-63
2023/08/23 07:20:16;;;;;;;8.77;2.60;;;;;;;20.05;100.00;101214.56;4971480;28;20075;-64
2023/08/23 07:22:46;;;;;;;8.50;2.33;;;;;;;20.26;100.00;101218.94;4972235;28;20507;-65
2023/08/23 07:25:13;;;;;;;5.70;2.22;;;;;;;20.47;100.00;101218.72;4971543;28;20513;-66
2023/08/23 07:27:39;;;;;;;6.85;2.58;;;;;;;20.82;100.00;101219.22;4971542;28;20047;-67
2023/08/23 07:30:07;;;;;;;10.82;3.83;;;;;;;21.41;100.00;101222.72;4971301;28;20105;-69
2023/08/23 07:32:35;;;;;;;8.68;4.05;;;;;;;21.83;100.00;101223.88;4971423;28;20074;-68
2023/08/23 07:35:02;;;;;;;4.50;1.85;;;;;;;22.39;100.00;101226.72;4971606;28;20437;-69
2023/08/23 07:37:31;;;;;;;6.35;2.05;;;;;;;22.70;100.00;101220.28;4971816;28;20128;-68
2023/08/23 07:39:58;;;;;;;5.55;2.58;;;;;;;22.92;100.00;101226.97;4971893;28;20051;-70
2023/08/23 07:42:25;;;;;;;6.28;1.92;;;;;;;23.21;94.74;101222.59;4972042;28;20196;-69
2023/08/23 07:44:52;;;;;;;7.80;2.05;;;;;;;23.58;89.05;101233.44;4971272;28;20133;-68
2023/08/23 07:47:19;;;;;;;6.13;2.50;;;;;;;23.61;90.91;101226.66;4970790;28;20047;-68
2023/08/23 07:49:45;;;;;;;5.20;2.33;;;;;;;23.79;88.63;101232.06;4970993;28;20495;-69
2023/08/23 07:52:12;;;;;;;7.32;2.22;;;;;;;23.93;84.40;101228.03;4970803;28;20121;-69
2023/08/23 07:54:39;;;;;;;9.27;2.05;;;;;;;24.43;79.19;101230.31;4954638;28;20495;-69
2023/08/23 07:57:06;;;;;;;8.68;1.80;;;;;;;24.34;79.20;101230.91;4971395;28;20053;-69
2023/08/23 07:59:33;;;;;;;6.00;2.03;;;;;;;24.46;77.50;101234.47;4970573;28;20043;-68
2023/08/23 08:02:00;;;;;;;5.20;1.70;;;;;;;24.78;74.21;101237.63;4971233;28;20053;-69
2023/08/23 08:04:29;;;;;;;5.55;2.38;;;;;;;24.65;76.33;101230.53;4971616;28;20065;-67
2023/08/23 08:06:56;;;;;;;6.55;2.67;;;;;;;24.80;75.48;101242.88;4970811;28;20051;-68
2023/08/23 08:09:23;;;;;;;4.57;1.90;;;;;;;25.42;69.45;101242.19;4971378;28;20050;-69
2023/08/23 08:11:49;;;;;;;6.43;1.95;;;;;;;25.31;67.61;101249.44;4971183;28;20062;-68
2023/08/23 08:14:16;;;;;;;8.88;2.00;;;;;;;25.18;67.90;101246.97;4970856;28;20101;-69
2023/08/23 08:16:43;;;;;;;7.00;2.03;;;;;;;24.79;68.53;101233.00;4971526;28;20477;-67
2023/08/23 08:19:10;;;;;;;6.25;2.08;;;;;;;25.19;67.58;101232.16;4971225;28;20049;-70
2023/08/23 08:21:37;;;;;;;8.20;2.28;;;;;;;25.53;65.96;101230.31;4971357;28;20105;-69
2023/08/23 08:24:03;;;;;;;8.18;2.05;;;;;;;25.68;63.94;101229.75;4971376;28;20466;-69
2023/08/23 08:26:30;;;;;;;8.93;2.17;;;;;;;25.84;62.61;101234.44;4970751;28;20059;-68
2023/08/23 08:28:57;;;;;;;10.50;3.20;;;;;;;25.77;62.04;101234.59;4970967;28;20134;-70
2023/08/23 08:31:23;;;;;;;5.25;2.30;;;;;;;25.81;61.52;101241.25;4971180;28;20078;-70
2023/08/23 08:33:50;;;;;;;7.85;2.42;;;;;;;25.82;61.98;101242.94;4970683;28;20058;-69
2023/08/23 08:36:16;;;;;;;9.23;2.10;;;;;;;25.50;62.28;101245.38;4970752;28;20557;-70
2023/08/23 08:38:43;;;;;;;6.03;2.10;;;;;;;25.98;60.72;101240.44;4971745;28;20486;-69
2023/08/23 08:41:12;;;;;;;6.78;2.13;;;;;;;26.07;59.68;101244.44;4970673;28;20113;-69
2023/08/23 08:43:41;;;;;;;5.55;2.05;;;;;;;26.06;58.96;101248.25;4970653;28;20039;-68
2023/08/23 08:46:09;;;;;;;6.28;1.92;;;;;;;26.49;56.57;101244.78;4970496;28;20057;-68
2023/08/23 08:48:36;;;;;;;5.82;2.17;;;;;;;26.39;56.94;101247.41;4970425;28;20054;-69
2023/08/23 08:51:07;;;;;;;12.90;2.33;;;;;;;26.04;57.73;101248.50;4970291;28;20105;-70
2023/08/23 08:53:34;;;;;;;6.72;2.33;;;;;;;26.63;54.96;101244.44;4970471;28;20054;-69
2023/08/23 08:56:01;;;;;;;8.18;2.10;;;;;;;26.09;56.13;101247.75;4970356;28;20047;-71
2023/08/23 08:58:29;;;;;;;4.47;1.95;;;;;;;26.66;54.80;101252.16;4969812;28;20423;-70
2023/08/23 09:01:00;;;;;;;6.05;1.90;;;;;;;26.91;53.38;101244.25;4970346;28;20074;-69
2023/08/23 09:03:29;;;;;;;6.47;2.20;;;;;;;26.97;52.89;101247.91;4970875;28;20421;-70
2023/08/23 09:05:56;;;;;;;5.05;1.85;;;;;;;27.65;50.60;101245.59;4970105;28;20042;-68
2023/08/23 09:08:23;;;;;;;8.77;2.13;;;;;;;27.89;50.29;101249.69;4970441;28;20518;-71
2023/08/23 09:10:50;;;;;;;7.13;1.75;;;;;;;28.24;48.55;101253.78;4969714;28;20047;-67
2023/08/23 09:13:17;;;;;;;3.63;1.80;;;;;;;28.23;48.14;101243.84;4970099;28;20073;-68
2023/08/23 09:15:46;;;;;;;6.97;1.95;;;;;;;28.62;47.37;101244.34;4970923;28;20051;-68
2023/08/23 09:18:13;;;;;;;4.97;2.13;;;;;;;28.38;47.19;101246.69;4970461;28;20047;-68
2023/08/23 09:20:42;;;;;;;9.52;4.25;;;;;;;28.30;47.44;101251.91;4970130;28;20049;-68
2023/08/23 09:23:09;;;;;;;10.13;2.00;;;;;;;27.46;48.74;101257.00;4970274;28;20062;-68
2023/08/23 09:25:36;;;;;;;3.35;1.67;;;;;;;26.30;52.22;101251.66;4970282;28;20046;-69
2023/08/23 09:28:03;;;;;;;5.90;2.10;;;;;;;25.82;54.17;101253.06;4970018;28;20388;-70
2023/08/23 09:30:31;;;;;;;9.18;2.45;;;;;;;26.52;52.64;101247.03;4970467;28;20078;-70
2023/08/23 09:32:58;;;;;;;5.68;1.65;;;;;;;27.01;50.97;101249.06;4970097;28;20051;-70
2023/08/23 09:35:25;;;;;;;6.13;2.00;;;;;;;27.60;49.31;101256.56;4970185;28;20139;-70
2023/08/23 09:37:52;;;;;;;7.03;1.90;;;;;;;27.99;47.85;101259.97;4970401;28;20046;-69
2023/08/23 09:40:21;;;;;;;5.22;1.85;;;;;;;28.10;46.86;101263.63;4969718;28;20043;-70
2023/08/23 09:42:49;;;;;;;5.22;1.88;;;;;;;28.24;46.72;101262.06;4969749;28;20049;-70
2023/08/23 09:45:21;;;;;;;9.73;2.58;;;;;;;28.39;45.87;101253.88;4970112;28;20046;-69
2023/08/23 09:47:58;;;;;;;5.68;1.60;;;;;;;29.45;43.49;101260.13;4972635;28;20062;-69
2023/08/23 09:50:26;;;;;;;6.05;1.98;;;;;;;29.10;43.73;101258.94;4973606;28;20133;-69
2023/08/23 09:53:04;;;;;;;5.07;1.73;;;;;;;28.82;43.87;101257.44;4973616;28;20524;-70
2023/08/23 09:55:34;;;;;;;5.45;2.30;;;;;;;28.41;44.64;101257.22;4973543;28;20579;-71
2023/08/23 09:58:02;;;;;;;4.90;1.88;;;;;;;27.16;48.03;101251.13;4973114;28;20169;-71
2023/08/23 10:00:28;;;;;;;7.82;2.03;;;;;;;27.03;48.08;101247.69;4973026;28;20046;-70
2023/08/23 10:02:58;;;;;;;8.70;2.28;;;;;;;26.42;49.85;101248.81;4973562;28;20554;-69
2023/08/23 10:05:26;;;;;;;10.03;1.97;;;;;;;25.98;51.80;101251.41;4973537;28;20117;-70
2023/08/23 10:07:55;;;;;;;6.32;1.80;;;;;;;25.66;52.79;101253.91;4972862;28;20049;-68
2023/08/23 10:10:22;;;;;;;10.63;2.45;;;;;;;26.30;51.17;101260.75;4973230;28;20105;-70
2023/08/23 10:12:52;;;;;;;6.07;1.50;;;;;;;25.70;52.43;101260.59;4973162;28;20046;-70
2023/08/23 10:15:26;;;;;;;6.95;1.67;;;;;;;25.43;53.66;101255.66;4972865;28;20070;-70
2023/08/23 10:17:54;;;;;;;3.53;1.50;;;;;;;25.65;52.44;101258.59;4972946;28;20047;-70
2023/08/23 10:20:23;;;;;;;9.38;1.55;;;;;;;26.55;50.21;101249.28;4972083;28;20519;-72
2023/08/23 10:22:54;;;;;;;11.52;1.67;;;;;;;28.64;44.87;101249.63;4972396;28;20495;-69
2023/08/23 10:25:21;;;;;;;3.97;1.45;;;;;;;27.98;44.94;101247.28;4972637;28;20047;-70
2023/08/23 10:27:52;;;;;;;8.93;1.90;;;;;;;27.48;46.02;101249.28;4972611;28;20046;-70
2023/08/23 10:30:21;;;;;;;;;;;;;;;27.26;46.43;101246.56;4973471;28;20058;-70
2023/08/23 10:32:48;;;;;;;3.22;1.20;;;;;;;27.64;46.35;101246.69;4972232;28;19922;-70
2023/08/23 10:35:21;;;;;;;4.00;1.50;;;;;;;27.17;46.79;101253.63;4973415;28;20468;-70
2023/08/23 10:37:48;;;;;;;5.25;1.38;;;;;;;26.63;46.87;101253.50;4972209;28;20078;-69
2023/08/23 10:40:18;;;;;;;5.72;1.35;;;;;;;26.64;46.95;101246.91;4973145;28;20050;-70
2023/08/23 10:42:45;;;;;;;4.32;1.48;;;;;;;26.18;47.12;101242.69;4972667;28;20510;-69
2023/08/23 10:45:14;;;;;;;7.15;1.25;;;;;;;26.75;46.82;101245.97;4972200;28;20047;-69
2023/08/23 10:47:42;;;;;;;9.57;1.33;;;;;;;27.25;45.38;101244.09;4972683;28;20510;-71
2023/08/23 10:50:09;;;;;;;11.95;1.67;;;;;;;27.21;45.62;101245.66;4972466;28;20138;-70
2023/08/23 10:52:36;;;;;;;3.65;1.45;;;;;;;28.06;44.31;101249.53;4972360;28;20125;-71
2023/08/23 10:55:04;;;;;;;4.20;1.23;;;;;;;27.98;44.33;101250.03;4972539;28;20051;-71
2023/08/23 10:57:31;;;;;;;6.25;1.58;;;;;;;26.76;46.21;101244.91;4971807;28;20093;-72
2023/08/23 10:59:57;;;;;;;9.20;1.77;;;;;;;25.76;48.78;101243.94;4971966;28;20490;-71
2023/08/23 11:02:24;;;;;;;4.97;1.90;;;;;;;25.85;48.75;101242.41;4971768;28;20094;-71
2023/08/23 11:04:52;;;;;;;4.43;1.15;;;;;;;25.91;48.55;101240.59;4971860;28;20047;-69
2023/08/23 11:07:24;;;;;;;3.70;1.30;;;;;;;25.93;48.09;101243.06;4971960;28;20071;-69
2023/08/23 11:09:50;;;;;;;4.10;1.45;;;;;;;25.65;48.20;101235.75;4971781;28;20405;-70
2023/08/23 11:12:18;;;;;;;2.95;1.10;;;;;;;25.37;48.68;101224.56;4954698;28;20051;-70
2023/08/23 11:14:44;;;;;;;5.40;1.42;;;;;;;25.44;49.50;101229.03;4972353;28;20102;-70
2023/08/23 11:17:11;;;;;;;4.30;1.65;;;;;;;25.58;48.54;101225.75;4972315;28;20052;-70
2023/08/23 11:19:38;;;;;;;6.30;1.30;;;;;;;25.56;49.87;101218.81;4971349;28;20047;-69
2023/08/23 11:22:06;;;;;;;4.55;1.42;;;;;;;25.61;50.08;101222.50;4970511;28;20410;-72
2023/08/23 11:24:38;;;;;;;7.78;1.33;;;;;;;25.59;50.22;101221.94;4971025;28;20114;-70
2023/08/23 11:27:14;;;;;;;4.10;1.33;;;;;;;25.52;50.63;101215.75;4971451;28;20050;-71
2023/08/23 11:29:42;;;;;;;5.25;1.33;;;;;;;25.65;50.44;101216.50;4970932;28;20053;-70